sensor_id;sensor_type;location;lat;lon;timestamp;P1;durP1;ratioP1;P2;durP2;ratioP2
24751;SDS011;27246;52.376;4.628;2023-03-16T00:03:46;8.32;;;5.53;;
24751;SDS011;27246;52.376;4.628;2023-03-16T00:08:48;8.63;;;5.47;;
24751;SDS011;27246;52.376;4.628;2023-03-16T00:13:50;5.70;;;5.20;;
24751;SDS011;27246;52.376;4.628;2023-03-16T00:18:52;6.07;;;5.20;;
24751;SDS011;27246;52.376;4.628;2023-03-16T00:23:54;5.45;;;4.95;;
24751;SDS011;27246;52.376;4.628;2023-03-16T00:28:56;5.22;;;4.72;;
24751;SDS011;27246;52.376;4.628;2023-03-16T00:33:57;5.70;;;5.03;;
24751;SDS011;27246;52.376;4.628;2023-03-16T00:38:59;6.10;;;5.50;;
24751;SDS011;27246;52.376;4.628;2023-03-16T00:44:03;6.72;;;5.30;;
24751;SDS011;27246;52.376;4.628;2023-03-16T00:49:05;6.50;;;5.65;;
24751;SDS011;27246;52.376;4.628;2023-03-16T00:54:07;7.13;;;5.43;;
24751;SDS011;27246;52.376;4.628;2023-03-16T00:59:09;6.40;;;5.68;;
24751;SDS011;27246;52.376;4.628;2023-03-16T01:04:13;8.52;;;6.25;;
24751;SDS011;27246;52.376;4.628;2023-03-16T01:09:14;7.28;;;5.63;;
24751;SDS011;27246;52.376;4.628;2023-03-16T01:14:16;6.43;;;5.43;;
24751;SDS011;27246;52.376;4.628;2023-03-16T01:19:18;5.85;;;5.32;;
24751;SDS011;27246;52.376;4.628;2023-03-16T01:24:20;7.60;;;6.05;;
24751;SDS011;27246;52.376;4.628;2023-03-16T01:29:21;6.22;;;5.50;;
24751;SDS011;27246;52.376;4.628;2023-03-16T01:34:25;8.57;;;5.88;;
24751;SDS011;27246;52.376;4.628;2023-03-16T01:39:28;6.30;;;5.70;;
24751;SDS011;27246;52.376;4.628;2023-03-16T01:44:48;6.90;;;5.28;;
24751;SDS011;27246;52.376;4.628;2023-03-16T01:50:10;8.68;;;6.15;;
24751;SDS011;27246;52.376;4.628;2023-03-16T01:55:14;8.95;;;5.90;;
24751;SDS011;27246;52.376;4.628;2023-03-16T02:00:17;6.60;;;5.85;;
24751;SDS011;27246;52.376;4.628;2023-03-16T02:10:39;7.40;;;6.00;;
24751;SDS011;27246;52.376;4.628;2023-03-16T02:15:41;6.80;;;6.05;;
24751;SDS011;27246;52.376;4.628;2023-03-16T02:25:52;6.60;;;5.90;;
24751;SDS011;27246;52.376;4.628;2023-03-16T02:31:06;6.53;;;5.55;;
24751;SDS011;27246;52.376;4.628;2023-03-16T02:36:08;6.75;;;5.68;;
24751;SDS011;27246;52.376;4.628;2023-03-16T02:41:12;7.00;;;5.22;;
24751;SDS011;27246;52.376;4.628;2023-03-16T02:46:16;8.60;;;5.45;;
24751;SDS011;27246;52.376;4.628;2023-03-16T02:51:22;7.13;;;5.65;;
24751;SDS011;27246;52.376;4.628;2023-03-16T02:56:24;6.93;;;6.07;;
24751;SDS011;27246;52.376;4.628;2023-03-16T03:01:26;6.68;;;5.97;;
24751;SDS011;27246;52.376;4.628;2023-03-16T03:06:28;7.95;;;6.30;;
24751;SDS011;27246;52.376;4.628;2023-03-16T03:11:30;9.07;;;6.57;;
24751;SDS011;27246;52.376;4.628;2023-03-16T03:16:33;7.07;;;6.05;;
24751;SDS011;27246;52.376;4.628;2023-03-16T03:21:35;7.38;;;6.13;;
24751;SDS011;27246;52.376;4.628;2023-03-16T03:26:36;8.80;;;6.75;;
24751;SDS011;27246;52.376;4.628;2023-03-16T03:31:41;6.50;;;5.63;;
24751;SDS011;27246;52.376;4.628;2023-03-16T03:36:44;9.23;;;6.22;;
24751;SDS011;27246;52.376;4.628;2023-03-16T03:41:46;7.22;;;6.38;;
24751;SDS011;27246;52.376;4.628;2023-03-16T03:46:48;7.05;;;6.25;;
24751;SDS011;27246;52.376;4.628;2023-03-16T03:51:52;8.93;;;5.90;;
24751;SDS011;27246;52.376;4.628;2023-03-16T03:56:58;6.97;;;6.28;;
24751;SDS011;27246;52.376;4.628;2023-03-16T04:02:00;7.45;;;6.43;;
24751;SDS011;27246;52.376;4.628;2023-03-16T04:07:12;9.52;;;6.35;;
24751;SDS011;27246;52.376;4.628;2023-03-16T04:12:15;6.82;;;6.00;;
24751;SDS011;27246;52.376;4.628;2023-03-16T04:17:17;7.25;;;6.18;;
24751;SDS011;27246;52.376;4.628;2023-03-16T04:22:20;7.40;;;5.93;;
24751;SDS011;27246;52.376;4.628;2023-03-16T04:27:24;9.50;;;5.82;;
24751;SDS011;27246;52.376;4.628;2023-03-16T04:32:26;5.60;;;5.10;;
24751;SDS011;27246;52.376;4.628;2023-03-16T04:37:29;6.55;;;5.47;;
24751;SDS011;27246;52.376;4.628;2023-03-16T04:42:31;7.35;;;6.13;;
24751;SDS011;27246;52.376;4.628;2023-03-16T04:47:33;6.57;;;5.85;;
24751;SDS011;27246;52.376;4.628;2023-03-16T04:52:35;7.55;;;6.03;;
24751;SDS011;27246;52.376;4.628;2023-03-16T04:57:37;7.15;;;4.97;;
24751;SDS011;27246;52.376;4.628;2023-03-16T05:02:38;6.82;;;4.78;;
24751;SDS011;27246;52.376;4.628;2023-03-16T05:07:43;5.47;;;4.90;;
24751;SDS011;27246;52.376;4.628;2023-03-16T05:12:45;7.15;;;5.20;;
24751;SDS011;27246;52.376;4.628;2023-03-16T05:17:48;5.90;;;4.43;;
24751;SDS011;27246;52.376;4.628;2023-03-16T05:22:49;7.80;;;5.15;;
24751;SDS011;27246;52.376;4.628;2023-03-16T05:27:57;6.50;;;5.15;;
24751;SDS011;27246;52.376;4.628;2023-03-16T05:33:22;5.10;;;4.05;;
24751;SDS011;27246;52.376;4.628;2023-03-16T05:38:29;6.35;;;3.97;;
24751;SDS011;27246;52.376;4.628;2023-03-16T05:43:32;4.80;;;3.92;;
24751;SDS011;27246;52.376;4.628;2023-03-16T05:48:35;5.53;;;3.25;;
24751;SDS011;27246;52.376;4.628;2023-03-16T05:53:37;5.55;;;3.97;;
24751;SDS011;27246;52.376;4.628;2023-03-16T05:58:47;4.25;;;3.15;;
24751;SDS011;27246;52.376;4.628;2023-03-16T06:03:49;4.57;;;3.20;;
24751;SDS011;27246;52.376;4.628;2023-03-16T06:08:56;5.50;;;2.97;;
24751;SDS011;27246;52.376;4.628;2023-03-16T06:13:59;6.15;;;3.83;;
24751;SDS011;27246;52.376;4.628;2023-03-16T06:19:01;3.63;;;2.95;;
24751;SDS011;27246;52.376;4.628;2023-03-16T06:24:05;5.70;;;3.17;;
24751;SDS011;27246;52.376;4.628;2023-03-16T06:29:09;7.25;;;3.33;;
24751;SDS011;27246;52.376;4.628;2023-03-16T06:34:12;3.45;;;3.05;;
24751;SDS011;27246;52.376;4.628;2023-03-16T06:39:14;6.53;;;3.58;;
24751;SDS011;27246;52.376;4.628;2023-03-16T06:44:20;3.42;;;2.88;;
24751;SDS011;27246;52.376;4.628;2023-03-16T06:49:36;3.78;;;3.25;;
24751;SDS011;27246;52.376;4.628;2023-03-16T06:59:50;4.85;;;3.25;;
24751;SDS011;27246;52.376;4.628;2023-03-16T07:04:52;6.05;;;2.95;;
24751;SDS011;27246;52.376;4.628;2023-03-16T07:09:54;4.20;;;3.10;;
24751;SDS011;27246;52.376;4.628;2023-03-16T07:14:56;4.90;;;2.90;;
24751;SDS011;27246;52.376;4.628;2023-03-16T07:19:59;6.13;;;2.65;;
24751;SDS011;27246;52.376;4.628;2023-03-16T07:25:01;4.43;;;2.85;;
24751;SDS011;27246;52.376;4.628;2023-03-16T07:30:03;4.25;;;2.65;;
24751;SDS011;27246;52.376;4.628;2023-03-16T07:35:09;5.28;;;2.72;;
24751;SDS011;27246;52.376;4.628;2023-03-16T07:40:12;3.67;;;2.97;;
24751;SDS011;27246;52.376;4.628;2023-03-16T07:45:15;6.68;;;3.10;;
24751;SDS011;27246;52.376;4.628;2023-03-16T07:50:19;3.90;;;3.10;;
24751;SDS011;27246;52.376;4.628;2023-03-16T07:55:23;5.30;;;2.83;;
24751;SDS011;27246;52.376;4.628;2023-03-16T08:00:25;8.40;;;3.22;;
24751;SDS011;27246;52.376;4.628;2023-03-16T08:05:28;4.60;;;3.05;;
24751;SDS011;27246;52.376;4.628;2023-03-16T08:10:33;5.05;;;3.13;;
24751;SDS011;27246;52.376;4.628;2023-03-16T08:15:48;4.25;;;3.00;;
24751;SDS011;27246;52.376;4.628;2023-03-16T08:21:11;5.13;;;3.10;;
24751;SDS011;27246;52.376;4.628;2023-03-16T08:26:14;5.70;;;3.25;;
24751;SDS011;27246;52.376;4.628;2023-03-16T08:31:25;4.32;;;2.88;;
24751;SDS011;27246;52.376;4.628;2023-03-16T08:36:33;4.63;;;3.17;;
24751;SDS011;27246;52.376;4.628;2023-03-16T08:41:35;5.32;;;3.17;;
24751;SDS011;27246;52.376;4.628;2023-03-16T08:46:42;6.07;;;3.72;;
24751;SDS011;27246;52.376;4.628;2023-03-16T08:51:45;5.07;;;3.35;;
24751;SDS011;27246;52.376;4.628;2023-03-16T08:56:47;8.57;;;5.53;;
24751;SDS011;27246;52.376;4.628;2023-03-16T09:01:49;6.55;;;3.35;;
24751;SDS011;27246;52.376;4.628;2023-03-16T09:06:51;7.32;;;3.38;;
24751;SDS011;27246;52.376;4.628;2023-03-16T09:12:08;4.13;;;3.22;;
24751;SDS011;27246;52.376;4.628;2023-03-16T09:17:10;5.65;;;3.25;;
24751;SDS011;27246;52.376;4.628;2023-03-16T09:22:13;7.32;;;3.42;;
24751;SDS011;27246;52.376;4.628;2023-03-16T09:27:14;5.65;;;3.25;;
24751;SDS011;27246;52.376;4.628;2023-03-16T09:32:17;5.20;;;3.92;;
24751;SDS011;27246;52.376;4.628;2023-03-16T09:37:19;6.93;;;3.83;;
24751;SDS011;27246;52.376;4.628;2023-03-16T09:42:29;8.02;;;3.33;;
24751;SDS011;27246;52.376;4.628;2023-03-16T09:47:37;4.85;;;3.63;;
24751;SDS011;27246;52.376;4.628;2023-03-16T09:52:48;4.93;;;3.95;;
24751;SDS011;27246;52.376;4.628;2023-03-16T10:08:38;5.22;;;3.30;;
24751;SDS011;27246;52.376;4.628;2023-03-16T10:18:59;5.60;;;2.95;;
24751;SDS011;27246;52.376;4.628;2023-03-16T10:24:03;6.43;;;2.85;;
24751;SDS011;27246;52.376;4.628;2023-03-16T10:29:13;5.90;;;3.13;;
24751;SDS011;27246;52.376;4.628;2023-03-16T10:34:16;5.82;;;3.30;;
24751;SDS011;27246;52.376;4.628;2023-03-16T10:39:18;4.82;;;2.50;;
24751;SDS011;27246;52.376;4.628;2023-03-16T10:44:21;4.32;;;2.20;;
24751;SDS011;27246;52.376;4.628;2023-03-16T10:54:34;3.65;;;2.05;;
24751;SDS011;27246;52.376;4.628;2023-03-16T10:59:46;3.65;;;2.05;;
24751;SDS011;27246;52.376;4.628;2023-03-16T11:04:49;6.25;;;2.08;;
24751;SDS011;27246;52.376;4.628;2023-03-16T11:09:53;4.28;;;1.98;;
24751;SDS011;27246;52.376;4.628;2023-03-16T11:15:02;11.15;;;2.47;;
24751;SDS011;27246;52.376;4.628;2023-03-16T11:20:26;5.88;;;1.95;;
24751;SDS011;27246;52.376;4.628;2023-03-16T11:25:36;5.75;;;2.28;;
24751;SDS011;27246;52.376;4.628;2023-03-16T11:36:42;5.28;;;2.35;;
24751;SDS011;27246;52.376;4.628;2023-03-16T11:41:53;4.65;;;2.00;;
24751;SDS011;27246;52.376;4.628;2023-03-16T11:52:39;4.85;;;2.25;;
24751;SDS011;27246;52.376;4.628;2023-03-16T12:14:27;4.07;;;1.90;;
24751;SDS011;27246;52.376;4.628;2023-03-16T12:24:55;4.85;;;1.92;;
24751;SDS011;27246;52.376;4.628;2023-03-16T12:35:24;4.72;;;2.40;;
24751;SDS011;27246;52.376;4.628;2023-03-16T12:45:50;5.38;;;2.13;;
24751;SDS011;27246;52.376;4.628;2023-03-16T12:51:01;4.88;;;2.50;;
24751;SDS011;27246;52.376;4.628;2023-03-16T12:56:06;4.45;;;1.83;;
24751;SDS011;27246;52.376;4.628;2023-03-16T13:01:10;4.95;;;1.92;;
24751;SDS011;27246;52.376;4.628;2023-03-16T13:06:17;2.55;;;1.40;;
24751;SDS011;27246;52.376;4.628;2023-03-16T13:11:23;4.07;;;2.00;;
24751;SDS011;27246;52.376;4.628;2023-03-16T13:16:29;2.80;;;1.50;;
24751;SDS011;27246;52.376;4.628;2023-03-16T13:21:37;5.50;;;1.77;;
24751;SDS011;27246;52.376;4.628;2023-03-16T13:26:42;3.70;;;1.17;;
24751;SDS011;27246;52.376;4.628;2023-03-16T13:31:48;4.50;;;1.33;;
24751;SDS011;27246;52.376;4.628;2023-03-16T13:36:52;4.35;;;2.22;;
24751;SDS011;27246;52.376;4.628;2023-03-16T13:41:59;4.32;;;2.03;;
24751;SDS011;27246;52.376;4.628;2023-03-16T13:47:17;4.40;;;1.60;;
24751;SDS011;27246;52.376;4.628;2023-03-16T13:52:34;14.57;;;1.88;;
24751;SDS011;27246;52.376;4.628;2023-03-16T13:57:36;5.57;;;1.73;;
24751;SDS011;27246;52.376;4.628;2023-03-16T14:02:41;7.20;;;1.73;;
24751;SDS011;27246;52.376;4.628;2023-03-16T14:07:47;4.57;;;1.35;;
24751;SDS011;27246;52.376;4.628;2023-03-16T14:12:51;8.63;;;1.77;;
24751;SDS011;27246;52.376;4.628;2023-03-16T14:18:14;4.45;;;1.40;;
24751;SDS011;27246;52.376;4.628;2023-03-16T14:23:32;4.70;;;1.40;;
24751;SDS011;27246;52.376;4.628;2023-03-16T14:28:38;4.90;;;1.52;;
24751;SDS011;27246;52.376;4.628;2023-03-16T14:33:41;4.07;;;1.30;;
24751;SDS011;27246;52.376;4.628;2023-03-16T14:38:46;2.05;;;1.00;;
24751;SDS011;27246;52.376;4.628;2023-03-16T14:43:50;5.95;;;2.13;;
24751;SDS011;27246;52.376;4.628;2023-03-16T14:48:59;3.45;;;1.33;;
24751;SDS011;27246;52.376;4.628;2023-03-16T14:54:25;3.88;;;1.40;;
24751;SDS011;27246;52.376;4.628;2023-03-16T14:59:28;6.40;;;1.55;;
24751;SDS011;27246;52.376;4.628;2023-03-16T15:04:31;2.13;;;1.52;;
24751;SDS011;27246;52.376;4.628;2023-03-16T15:09:37;3.60;;;1.20;;
24751;SDS011;27246;52.376;4.628;2023-03-16T15:14:40;4.45;;;1.30;;
24751;SDS011;27246;52.376;4.628;2023-03-16T15:20:00;5.00;;;1.35;;
24751;SDS011;27246;52.376;4.628;2023-03-16T15:25:17;3.00;;;1.10;;
24751;SDS011;27246;52.376;4.628;2023-03-16T15:30:22;4.43;;;1.33;;
24751;SDS011;27246;52.376;4.628;2023-03-16T15:35:26;4.95;;;1.00;;
24751;SDS011;27246;52.376;4.628;2023-03-16T15:40:28;3.47;;;1.23;;
24751;SDS011;27246;52.376;4.628;2023-03-16T15:45:30;2.90;;;1.00;;
24751;SDS011;27246;52.376;4.628;2023-03-16T15:50:32;4.68;;;1.20;;
24751;SDS011;27246;52.376;4.628;2023-03-16T16:00:37;2.63;;;1.08;;
24751;SDS011;27246;52.376;4.628;2023-03-16T16:05:41;3.55;;;1.05;;
24751;SDS011;27246;52.376;4.628;2023-03-16T16:10:43;2.28;;;1.20;;
24751;SDS011;27246;52.376;4.628;2023-03-16T16:15:46;2.75;;;1.20;;
24751;SDS011;27246;52.376;4.628;2023-03-16T16:20:50;5.38;;;1.52;;
24751;SDS011;27246;52.376;4.628;2023-03-16T16:25:56;3.25;;;1.40;;
24751;SDS011;27246;52.376;4.628;2023-03-16T16:31:01;4.22;;;1.30;;
24751;SDS011;27246;52.376;4.628;2023-03-16T16:36:04;4.22;;;1.50;;
24751;SDS011;27246;52.376;4.628;2023-03-16T16:41:08;2.85;;;1.63;;
24751;SDS011;27246;52.376;4.628;2023-03-16T16:46:18;2.53;;;1.52;;
24751;SDS011;27246;52.376;4.628;2023-03-16T16:51:25;2.60;;;1.38;;
24751;SDS011;27246;52.376;4.628;2023-03-16T16:56:30;4.82;;;1.30;;
24751;SDS011;27246;52.376;4.628;2023-03-16T17:01:34;2.28;;;0.80;;
24751;SDS011;27246;52.376;4.628;2023-03-16T17:06:36;4.45;;;1.17;;
24751;SDS011;27246;52.376;4.628;2023-03-16T17:11:38;2.22;;;1.15;;
24751;SDS011;27246;52.376;4.628;2023-03-16T17:16:41;4.65;;;1.45;;
24751;SDS011;27246;52.376;4.628;2023-03-16T17:21:43;5.53;;;2.35;;
24751;SDS011;27246;52.376;4.628;2023-03-16T17:26:47;4.82;;;2.28;;
24751;SDS011;27246;52.376;4.628;2023-03-16T17:31:51;10.20;;;5.25;;
24751;SDS011;27246;52.376;4.628;2023-03-16T17:36:53;4.30;;;1.65;;
24751;SDS011;27246;52.376;4.628;2023-03-16T17:42:00;3.05;;;1.40;;
24751;SDS011;27246;52.376;4.628;2023-03-16T17:47:20;5.63;;;1.52;;
24751;SDS011;27246;52.376;4.628;2023-03-16T17:52:25;4.40;;;1.80;;
24751;SDS011;27246;52.376;4.628;2023-03-16T17:57:30;2.35;;;1.52;;
24751;SDS011;27246;52.376;4.628;2023-03-16T18:02:38;2.80;;;1.63;;
24751;SDS011;27246;52.376;4.628;2023-03-16T18:07:45;3.92;;;2.00;;
24751;SDS011;27246;52.376;4.628;2023-03-16T18:12:49;5.95;;;1.65;;
24751;SDS011;27246;52.376;4.628;2023-03-16T18:18:03;4.47;;;3.20;;
24751;SDS011;27246;52.376;4.628;2023-03-16T18:23:15;4.03;;;2.08;;
24751;SDS011;27246;52.376;4.628;2023-03-16T18:28:19;7.60;;;3.85;;
24751;SDS011;27246;52.376;4.628;2023-03-16T18:33:29;4.80;;;2.15;;
24751;SDS011;27246;52.376;4.628;2023-03-16T18:38:38;6.18;;;3.55;;
24751;SDS011;27246;52.376;4.628;2023-03-16T18:43:43;5.00;;;2.67;;
24751;SDS011;27246;52.376;4.628;2023-03-16T18:48:45;4.40;;;2.97;;
24751;SDS011;27246;52.376;4.628;2023-03-16T18:53:47;7.90;;;4.13;;
24751;SDS011;27246;52.376;4.628;2023-03-16T18:58:49;6.18;;;3.88;;
24751;SDS011;27246;52.376;4.628;2023-03-16T19:03:53;6.25;;;4.63;;
24751;SDS011;27246;52.376;4.628;2023-03-16T19:08:57;5.95;;;2.60;;
24751;SDS011;27246;52.376;4.628;2023-03-16T19:14:10;3.58;;;2.42;;
24751;SDS011;27246;52.376;4.628;2023-03-16T19:19:16;8.65;;;4.45;;
24751;SDS011;27246;52.376;4.628;2023-03-16T19:24:30;7.05;;;3.10;;
24751;SDS011;27246;52.376;4.628;2023-03-16T19:29:35;3.60;;;2.15;;
24751;SDS011;27246;52.376;4.628;2023-03-16T19:34:37;5.80;;;2.70;;
24751;SDS011;27246;52.376;4.628;2023-03-16T19:39:39;4.15;;;2.55;;
24751;SDS011;27246;52.376;4.628;2023-03-16T19:44:41;3.55;;;2.30;;
24751;SDS011;27246;52.376;4.628;2023-03-16T19:49:48;4.78;;;3.42;;
24751;SDS011;27246;52.376;4.628;2023-03-16T19:54:50;3.35;;;2.42;;
24751;SDS011;27246;52.376;4.628;2023-03-16T19:59:52;4.95;;;3.08;;
24751;SDS011;27246;52.376;4.628;2023-03-16T20:04:56;4.80;;;3.05;;
24751;SDS011;27246;52.376;4.628;2023-03-16T20:09:58;5.22;;;2.35;;
24751;SDS011;27246;52.376;4.628;2023-03-16T20:15:00;5.43;;;2.65;;
24751;SDS011;27246;52.376;4.628;2023-03-16T20:20:04;4.50;;;2.45;;
24751;SDS011;27246;52.376;4.628;2023-03-16T20:25:17;3.78;;;2.20;;
24751;SDS011;27246;52.376;4.628;2023-03-16T20:30:19;3.17;;;2.28;;
24751;SDS011;27246;52.376;4.628;2023-03-16T20:35:25;2.75;;;2.30;;
24751;SDS011;27246;52.376;4.628;2023-03-16T20:40:29;4.60;;;2.25;;
24751;SDS011;27246;52.376;4.628;2023-03-16T20:45:31;3.47;;;2.05;;
24751;SDS011;27246;52.376;4.628;2023-03-16T20:50:33;5.00;;;3.17;;
24751;SDS011;27246;52.376;4.628;2023-03-16T20:55:35;2.75;;;2.40;;
24751;SDS011;27246;52.376;4.628;2023-03-16T21:00:37;2.70;;;2.30;;
24751;SDS011;27246;52.376;4.628;2023-03-16T21:05:40;3.20;;;2.45;;
24751;SDS011;27246;52.376;4.628;2023-03-16T21:10:43;4.25;;;2.28;;
24751;SDS011;27246;52.376;4.628;2023-03-16T21:15:47;4.30;;;2.53;;
24751;SDS011;27246;52.376;4.628;2023-03-16T21:20:52;3.95;;;2.33;;
24751;SDS011;27246;52.376;4.628;2023-03-16T21:25:57;2.50;;;1.90;;
24751;SDS011;27246;52.376;4.628;2023-03-16T21:31:01;3.83;;;2.78;;
24751;SDS011;27246;52.376;4.628;2023-03-16T21:36:06;4.97;;;2.80;;
24751;SDS011;27246;52.376;4.628;2023-03-16T21:41:13;5.00;;;2.60;;
24751;SDS011;27246;52.376;4.628;2023-03-16T21:46:19;3.97;;;2.83;;
24751;SDS011;27246;52.376;4.628;2023-03-16T21:51:26;5.97;;;2.83;;
24751;SDS011;27246;52.376;4.628;2023-03-16T21:56:31;3.17;;;2.70;;
24751;SDS011;27246;52.376;4.628;2023-03-16T22:01:33;3.25;;;2.50;;
24751;SDS011;27246;52.376;4.628;2023-03-16T22:06:43;3.58;;;2.70;;
24751;SDS011;27246;52.376;4.628;2023-03-16T22:11:46;4.68;;;3.28;;
24751;SDS011;27246;52.376;4.628;2023-03-16T22:16:48;3.78;;;3.22;;
24751;SDS011;27246;52.376;4.628;2023-03-16T22:21:50;6.03;;;3.33;;
24751;SDS011;27246;52.376;4.628;2023-03-16T22:26:52;3.97;;;3.05;;
24751;SDS011;27246;52.376;4.628;2023-03-16T22:31:56;5.43;;;3.22;;
24751;SDS011;27246;52.376;4.628;2023-03-16T22:37:00;5.57;;;3.22;;
24751;SDS011;27246;52.376;4.628;2023-03-16T22:42:04;4.00;;;3.10;;
24751;SDS011;27246;52.376;4.628;2023-03-16T22:47:26;4.72;;;3.10;;
24751;SDS011;27246;52.376;4.628;2023-03-16T22:52:29;7.13;;;3.25;;
24751;SDS011;27246;52.376;4.628;2023-03-16T22:57:35;3.50;;;3.05;;
24751;SDS011;27246;52.376;4.628;2023-03-16T23:02:37;6.40;;;3.95;;
24751;SDS011;27246;52.376;4.628;2023-03-16T23:07:39;4.25;;;3.30;;
24751;SDS011;27246;52.376;4.628;2023-03-16T23:12:40;4.95;;;3.90;;
24751;SDS011;27246;52.376;4.628;2023-03-16T23:17:43;6.43;;;4.22;;
24751;SDS011;27246;52.376;4.628;2023-03-16T23:22:44;3.85;;;3.45;;
24751;SDS011;27246;52.376;4.628;2023-03-16T23:27:46;6.40;;;3.67;;
24751;SDS011;27246;52.376;4.628;2023-03-16T23:32:50;4.35;;;3.95;;
24751;SDS011;27246;52.376;4.628;2023-03-16T23:37:53;5.20;;;3.67;;
24751;SDS011;27246;52.376;4.628;2023-03-16T23:42:57;3.92;;;3.63;;
24751;SDS011;27246;52.376;4.628;2023-03-16T23:48:01;4.85;;;3.47;;
24751;SDS011;27246;52.376;4.628;2023-03-16T23:53:09;3.92;;;3.47;;
24751;SDS011;27246;52.376;4.628;2023-03-16T23:58:13;6.30;;;3.40;;
